Time,TemperatureF,DewpointF,PressureIn,WindDirection,WindDirectionDegrees,WindSpeedMPH,WindSpeedGustMPH,Humidity,HourlyPrecipIn,Conditions,Clouds,dailyrainin,SoftwareType,DateUTC
2013-01-21 00:00:00,18.0,4.9,30.07,WSW,248,9.3,11.5,56,0.00,SCT,,0.00,WeatherDisplay:10.37,2013-01-21 05:00:00,
2013-01-21 00:02:00,18.0,4.5,30.07,NW,315,7.0,11.5,55,0.00,SCT,,0.00,WeatherDisplay:10.37,2013-01-21 05:02:00,
2013-01-21 00:03:00,18.0,4.5,30.07,West,270,6.4,7.3,55,0.00,SCT,,0.00,WeatherDisplay:10.37,2013-01-21 05:03:00,
2013-01-21 00:04:00,18.0,4.5,30.07,SW,225,8.0,10.4,55,0.00,SCT,,0.00,WeatherDisplay:10.37,2013-01-21 05:04:00,
2013-01-21 00:09:00,18.0,4.5,30.07,West,270,11.4,11.5,55,0.00,SCT,,0.00,WeatherDisplay:10.37,2013-01-21 05:09:00,
2013-01-21 00:14:00,18.0,4.1,30.07,West,270,7.3,7.3,54,0.00,SCT,,0.00,WeatherDisplay:10.37,2013-01-21 05:14:00,
2013-01-21 00:19:00,18.0,4.5,30.06,West,270,7.3,7.3,55,0.00,SCT,,0.00,WeatherDisplay:10.37,2013-01-21 05:19:00,
2013-01-21 00:24:00,17.8,4.7,30.06,SW,225,6.0,9.2,56,0.00,SCT,,0.00,WeatherDisplay:10.37,2013-01-21 05:24:00,
2013-01-21 00:29:00,17.8,4.7,30.06,West,270,6.5,10.4,56,0.00,SCT,,0.00,WeatherDisplay:10.37,2013-01-21 05:29:00,
2013-01-21 00:34:00,17.8,4.7,30.06,West,270,7.3,8.8,56,0.00,SCT,,0.00,WeatherDisplay:10.37,2013-01-21 05:34:00,
2013-01-21 00:39:00,17.8,4.7,30.06,WSW,248,10.5,13.8,56,0.00,SCT,,0.00,WeatherDisplay:10.37,2013-01-21 05:39:00,
2013-01-21 00:44:00,17.8,4.3,30.06,WNW,292,9.2,16.1,55,0.00,SCT,,0.00,WeatherDisplay:10.37,2013-01-21 05:44:00,
2013-01-21 00:49:00,17.6,4.2,30.06,West,270,8.5,9.2,55,0.00,SCT,,0.00,WeatherDisplay:10.37,2013-01-21 05:49:00,
2013-01-21 00:54:00,17.6,4.2,30.06,WSW,248,8.6,9.9,55,0.00,SCT,,0.00,WeatherDisplay:10.37,2013-01-21 05:54:00,
2013-01-21 00:59:00,17.6,4.5,30.06,WSW,248,9.3,10.4,56,0.00,SCT,,0.00,WeatherDisplay:10.37,2013-01-21 05:59:00,
2013-01-21 01:04:00,17.6,4.9,30.06,SSW,202,7.8,9.2,57,0.00,SCT,,0.00,WeatherDisplay:10.37,2013-01-21 06:04:00,
2013-01-21 01:09:00,17.8,5.1,30.06,West,270,7.8,12.7,57,0.00,SCT,,0.00,WeatherDisplay:10.37,2013-01-21 06:09:00,
2013-01-21 01:14:00,18.0,5.3,30.06,West,270,6.2,11.5,57,0.00,FEW,,0.00,WeatherDisplay:10.37,2013-01-21 06:14:00,
2013-01-21 01:19:00,18.0,4.9,30.06,WNW,292,10.0,12.7,56,0.00,FEW,,0.00,WeatherDisplay:10.37,2013-01-21 06:19:00,
2013-01-21 01:24:00,18.0,4.9,30.06,West,270,10.3,13.8,56,0.00,FEW,,0.00,WeatherDisplay:10.37,2013-01-21 06:24:00,
2013-01-21 01:29:00,18.0,4.9,30.06,WSW,248,8.9,15.0,56,0.00,FEW,,0.00,WeatherDisplay:10.37,2013-01-21 06:29:00,
2013-01-21 01:34:00,18.0,4.9,30.06,NNW,338,10.8,11.5,56,0.00,FEW,,0.00,WeatherDisplay:10.37,2013-01-21 06:34:00,
2013-01-21 01:39:00,18.0,4.9,30.05,WNW,292,7.4,10.4,56,0.00,FEW,,0.00,WeatherDisplay:10.37,2013-01-21 06:39:00,
2013-01-21 01:44:00,18.0,4.9,30.05,SW,225,6.1,9.2,56,0.00,FEW,,0.00,WeatherDisplay:10.37,2013-01-21 06:44:00,
2013-01-21 01:49:00,18.0,5.3,30.06,SW,225,9.6,15.0,57,0.00,FEW,,0.00,WeatherDisplay:10.37,2013-01-21 06:49:00,
2013-01-21 01:54:00,18.0,5.3,30.06,West,270,7.0,9.2,57,0.00,FEW,,0.00,WeatherDisplay:10.37,2013-01-21 06:54:00,
2013-01-21 01:59:00,18.0,5.3,30.06,WSW,248,5.0,9.2,57,0.00,FEW,,0.00,WeatherDisplay:10.37,2013-01-21 06:59:00,
2013-01-21 02:04:00,18.0,5.3,30.06,West,270,9.2,12.7,57,0.00,FEW,,0.00,WeatherDisplay:10.37,2013-01-21 07:04:00,
2013-01-21 02:09:00,18.0,5.7,30.06,NW,315,5.0,6.9,58,0.00,FEW,,0.00,WeatherDisplay:10.37,2013-01-21 07:09:00,
2013-01-21 02:14:00,18.0,5.7,30.06,NW,315,6.3,8.1,58,0.00,FEW,,0.00,WeatherDisplay:10.37,2013-01-21 07:14:00,
2013-01-21 02:19:00,18.0,5.7,30.06,NNW,338,7.1,7.1,58,0.00,FEW,,0.00,WeatherDisplay:10.37,2013-01-21 07:19:00,
2013-01-21 02:24:00,18.0,5.7,30.06,SW,225,7.6,9.9,58,0.00,FEW,,0.00,WeatherDisplay:10.37,2013-01-21 07:24:00,
2013-01-21 02:30:00,18.0,5.7,30.06,West,270,6.8,8.1,58,0.00,FEW,,0.00,WeatherDisplay:10.37,2013-01-21 07:30:00,
2013-01-21 02:35:00,17.8,5.9,30.06,NW,315,7.4,10.4,59,0.00,FEW,,0.00,WeatherDisplay:10.37,2013-01-21 07:35:00,
2013-01-21 02:40:00,17.8,5.9,30.06,West,270,6.6,9.2,59,0.00,FEW,,0.00,WeatherDisplay:10.37,2013-01-21 07:40:00,
2013-01-21 02:45:00,17.8,5.9,30.06,WSW,248,5.3,6.9,59,0.00,FEW,,0.00,WeatherDisplay:10.37,2013-01-21 07:45:00,
2013-01-21 02:50:00,17.8,6.2,30.06,West,270,6.8,8.3,60,0.00,FEW,,0.00,WeatherDisplay:10.37,2013-01-21 07:50:00,
2013-01-21 02:55:00,17.8,6.2,30.06,West,270,4.9,5.8,60,0.00,FEW,,0.00,WeatherDisplay:10.37,2013-01-21 07:55:00,
2013-01-21 03:00:00,17.8,6.2,30.06,SW,225,6.4,8.1,60,0.00,FEW,,0.00,WeatherDisplay:10.37,2013-01-21 08:00:00,
2013-01-21 03:05:00,17.8,6.2,30.04,WNW,292,5.6,10.4,60,0.00,FEW,,0.00,WeatherDisplay:10.37,2013-01-21 08:05:00,
2013-01-21 03:10:00,17.8,6.2,30.04,West,270,5.1,5.8,60,0.00,FEW,,0.00,WeatherDisplay:10.37,2013-01-21 08:10:00,
2013-01-21 03:15:00,17.8,6.2,30.04,WNW,292,3.5,4.6,60,0.00,FEW,,0.00,WeatherDisplay:10.37,2013-01-21 08:15:00,
2013-01-21 03:20:00,17.8,6.2,30.04,WSW,248,4.0,4.7,60,0.00,FEW,,0.00,WeatherDisplay:10.37,2013-01-21 08:20:00,
2013-01-21 03:25:00,17.8,5.9,30.04,WSW,248,5.5,7.3,59,0.00,FEW,,0.00,WeatherDisplay:10.37,2013-01-21 08:25:00,
2013-01-21 03:30:00,17.8,6.2,30.04,North,360,4.5,4.7,60,0.00,FEW,,0.00,WeatherDisplay:10.37,2013-01-21 08:30:00,
2013-01-21 03:35:00,17.8,6.2,30.04,WSW,248,3.4,4.6,60,0.00,FEW,,0.00,WeatherDisplay:10.37,2013-01-21 08:35:00,
2013-01-21 03:40:00,17.8,5.9,30.04,West,270,3.1,3.5,59,0.00,FEW,,0.00,WeatherDisplay:10.37,2013-01-21 08:40:00,
2013-01-21 03:45:00,17.8,5.9,30.04,WSW,248,3.1,5.8,59,0.00,FEW,,0.00,WeatherDisplay:10.37,2013-01-21 08:45:00,
2013-01-21 03:50:00,17.8,5.1,30.04,WSW,248,4.5,5.8,57,0.00,FEW,,0.00,WeatherDisplay:10.37,2013-01-21 08:50:00,
2013-01-21 03:55:00,17.8,5.5,30.03,South,180,2.2,3.5,58,0.00,FEW,,0.00,WeatherDisplay:10.37,2013-01-21 08:55:00,
2013-01-21 04:00:00,17.8,5.1,30.03,SW,225,3.8,5.3,57,0.00,FEW,,0.00,WeatherDisplay:10.37,2013-01-21 09:00:00,
2013-01-21 04:05:00,17.6,4.9,30.03,West,270,5.7,5.8,57,0.00,FEW,,0.00,WeatherDisplay:10.37,2013-01-21 09:05:00,
2013-01-21 04:10:00,17.6,4.9,30.03,WSW,248,2.8,4.6,57,0.00,FEW,,0.00,WeatherDisplay:10.37,2013-01-21 09:10:00,
2013-01-21 04:15:00,17.6,4.5,30.02,West,270,3.3,4.6,56,0.00,FEW,,0.00,WeatherDisplay:10.37,2013-01-21 09:15:00,
2013-01-21 04:20:00,17.6,4.5,30.02,WSW,248,5.9,6.9,56,0.00,FEW,,0.00,WeatherDisplay:10.37,2013-01-21 09:20:00,
2013-01-21 04:25:00,17.6,4.5,30.02,West,270,3.6,4.6,56,0.00,BKN,,0.00,WeatherDisplay:10.37,2013-01-21 09:25:00,
2013-01-21 04:30:00,17.6,4.5,30.02,West,270,4.4,5.8,56,0.00,BKN,,0.00,WeatherDisplay:10.37,2013-01-21 09:30:00,
2013-01-21 04:35:00,17.8,4.3,30.02,West,270,3.3,5.8,55,0.00,BKN,,0.00,WeatherDisplay:10.37,2013-01-21 09:35:00,
2013-01-21 04:40:00,17.8,4.3,30.02,SW,225,5.0,6.3,55,0.00,BKN,,0.00,WeatherDisplay:10.37,2013-01-21 09:40:00,
2013-01-21 04:45:00,17.8,4.3,30.02,SSW,202,4.9,5.8,55,0.00,BKN,,0.00,WeatherDisplay:10.37,2013-01-21 09:45:00,
2013-01-21 04:50:00,17.8,4.3,30.02,West,270,4.7,7.3,55,0.00,BKN,,0.00,WeatherDisplay:10.37,2013-01-21 09:50:00,
2013-01-21 04:55:00,17.8,4.3,30.02,West,270,3.2,3.5,55,0.00,BKN,,0.00,WeatherDisplay:10.37,2013-01-21 09:55:00,
2013-01-21 05:00:00,17.8,4.3,30.02,WSW,248,3.6,5.8,55,0.00,BKN,,0.00,WeatherDisplay:10.37,2013-01-21 10:00:00,
2013-01-21 05:05:00,17.8,4.7,30.02,SW,225,3.3,5.8,56,0.00,BKN,,0.00,WeatherDisplay:10.37,2013-01-21 10:05:00,
2013-01-21 05:10:00,17.8,4.7,30.02,WNW,292,3.8,4.6,56,0.00,BKN,,0.00,WeatherDisplay:10.37,2013-01-21 10:10:00,
2013-01-21 05:15:00,17.8,4.7,30.02,WSW,248,3.0,4.6,56,0.00,OVC,,0.00,WeatherDisplay:10.37,2013-01-21 10:15:00,
2013-01-21 05:20:00,17.8,4.7,30.02,West,270,3.4,4.6,56,0.00,OVC,,0.00,WeatherDisplay:10.37,2013-01-21 10:20:00,
2013-01-21 05:25:00,17.8,4.7,30.02,West,270,3.0,4.6,56,0.00,OVC,,0.00,WeatherDisplay:10.37,2013-01-21 10:25:00,
2013-01-21 05:30:00,17.8,5.1,30.01,West,270,3.7,4.6,57,0.00,OVC,,0.00,WeatherDisplay:10.37,2013-01-21 10:30:00,
2013-01-21 05:35:00,17.8,5.1,30.01,SW,225,2.8,3.5,57,0.00,OVC,,0.00,WeatherDisplay:10.37,2013-01-21 10:35:00,
2013-01-21 05:40:00,17.8,5.5,30.01,SSE,158,0.9,1.1,58,0.00,OVC,,0.00,WeatherDisplay:10.37,2013-01-21 10:40:00,
2013-01-21 05:45:00,17.8,5.5,30.01,SW,225,2.5,3.2,58,0.00,OVC,,0.00,WeatherDisplay:10.37,2013-01-21 10:45:00,
2013-01-21 05:50:00,17.8,5.1,30.01,South,180,2.1,3.5,57,0.00,OVC,,0.00,WeatherDisplay:10.37,2013-01-21 10:50:00,
2013-01-21 05:55:00,17.8,5.1,30.00,SW,225,2.0,2.7,57,0.00,OVC,,0.00,WeatherDisplay:10.37,2013-01-21 10:55:00,
2013-01-21 06:00:00,17.8,5.1,30.00,WSW,248,2.8,2.8,57,0.00,OVC,,0.00,WeatherDisplay:10.37,2013-01-21 11:00:00,
2013-01-21 06:05:00,17.8,5.1,30.00,SW,225,3.2,4.6,57,0.00,OVC,,0.00,WeatherDisplay:10.37,2013-01-21 11:05:00,
2013-01-21 06:10:00,17.8,5.5,30.00,West,270,3.4,3.5,58,0.00,OVC,,0.00,WeatherDisplay:10.37,2013-01-21 11:10:00,
2013-01-21 06:15:00,17.8,5.9,30.00,West,270,2.4,3.5,59,0.00,-SN,,0.00,WeatherDisplay:10.37,2013-01-21 11:15:00,
2013-01-21 06:20:00,17.8,5.9,30.00,WSW,248,2.6,3.7,59,0.00,-SN,,0.00,WeatherDisplay:10.37,2013-01-21 11:20:00,
2013-01-21 06:25:00,17.8,6.2,30.00,SW,225,3.0,4.6,60,0.00,-SN,,0.00,WeatherDisplay:10.37,2013-01-21 11:25:00,
2013-01-21 06:30:00,17.8,6.2,30.00,WSW,248,2.1,2.7,60,0.00,-SN,,0.00,WeatherDisplay:10.37,2013-01-21 11:30:00,
2013-01-21 06:35:00,17.8,6.6,30.00,SW,225,2.9,3.5,61,0.00,-SN,,0.00,WeatherDisplay:10.37,2013-01-21 11:35:00,
2013-01-21 06:40:00,17.6,7.1,29.99,WSW,250,1.0,3.0,63,0.00,-SN,-SN,0.00,WeatherDisplay:10.37,2013-01-21 11:40:00,
2013-01-21 06:45:00,17.8,7.3,29.99,WSW,246,0.0,2.0,63,0.00,-SN,-SN,0.00,WeatherDisplay:10.37,2013-01-21 11:45:00,
2013-01-21 06:50:00,17.8,7.7,29.99,WSW,242,2.0,3.0,64,0.00,-SN,-SN,0.00,WeatherDisplay:10.37,2013-01-21 11:50:00,
2013-01-21 06:55:00,17.6,7.8,29.99,WSW,254,1.0,2.0,65,0.00,-SN,-SN,0.00,WeatherDisplay:10.37,2013-01-21 11:55:00,
2013-01-21 07:00:00,17.6,7.8,29.99,WSW,248,1.2,1.7,65,0.00,-SN,,0.00,WeatherDisplay:10.37,2013-01-21 12:00:00,
2013-01-21 07:05:00,17.6,8.5,29.99,West,270,1.2,2.3,67,0.00,-SN,,0.00,WeatherDisplay:10.37,2013-01-21 12:05:00,
2013-01-21 07:10:00,17.6,8.5,29.99,West,270,2.9,3.5,67,0.00,-SN,,0.00,WeatherDisplay:10.37,2013-01-21 12:10:00,
2013-01-21 07:15:00,17.4,8.3,29.99,WSW,248,2.8,3.5,67,0.00,-SN,,0.00,WeatherDisplay:10.37,2013-01-21 12:15:00,
2013-01-21 07:20:00,17.4,8.6,29.99,West,270,1.6,2.3,68,0.00,-SN,,0.00,WeatherDisplay:10.37,2013-01-21 12:20:00,
2013-01-21 07:25:00,17.4,9.0,29.99,West,270,0.7,2.2,69,0.00,-SN,,0.00,WeatherDisplay:10.37,2013-01-21 12:25:00,
2013-01-21 07:30:00,17.4,9.0,29.99,WSW,248,1.5,1.5,69,0.00,-SN,,0.00,WeatherDisplay:10.37,2013-01-21 12:30:00,
2013-01-21 07:35:00,17.4,9.0,29.99,WSW,248,2.3,2.3,69,0.00,-SN,,0.00,WeatherDisplay:10.37,2013-01-21 12:35:00,
2013-01-21 07:40:00,17.4,9.0,29.98,WSW,248,1.9,2.3,69,0.00,-SN,,0.00,WeatherDisplay:10.37,2013-01-21 12:40:00,
2013-01-21 07:45:00,17.4,9.0,29.98,West,270,2.7,3.5,69,0.00,-SN,,0.00,WeatherDisplay:10.37,2013-01-21 12:45:00,
2013-01-21 07:50:00,17.4,9.3,29.98,WSW,248,2.1,2.3,70,0.00,-SN,,0.00,WeatherDisplay:10.37,2013-01-21 12:50:00,
2013-01-21 07:55:00,17.4,9.6,29.98,West,270,2.2,2.7,71,0.00,-SN,,0.00,WeatherDisplay:10.37,2013-01-21 12:55:00,
2013-01-21 08:00:00,17.4,9.9,29.98,ESE,112,0.6,1.7,72,0.00,-SN,,0.00,WeatherDisplay:10.37,2013-01-21 13:00:00,
2013-01-21 08:05:00,17.6,10.1,29.98,SE,135,1.9,2.3,72,0.00,-SN,,0.00,WeatherDisplay:10.37,2013-01-21 13:05:00,
2013-01-21 08:10:00,17.6,10.4,29.98,SSE,158,1.8,2.7,73,0.00,-SN,,0.00,WeatherDisplay:10.37,2013-01-21 13:10:00,
2013-01-21 08:15:00,17.6,10.7,29.98,West,270,1.2,2.7,74,0.00,-SN,,0.00,WeatherDisplay:10.37,2013-01-21 13:15:00,
2013-01-21 08:20:00,17.8,11.2,29.98,West,270,0.0,0.0,75,0.00,-SN,,0.00,WeatherDisplay:10.37,2013-01-21 13:20:00,
2013-01-21 08:25:00,18.0,11.7,29.98,SSE,158,0.0,0.0,76,0.00,-SN,,0.00,WeatherDisplay:10.37,2013-01-21 13:25:00,
2013-01-21 08:30:00,17.8,11.8,29.97,SSE,158,2.3,2.3,77,0.00,-SN,,0.00,WeatherDisplay:10.37,2013-01-21 13:30:00,
2013-01-21 08:35:00,17.8,11.8,29.97,SSE,158,0.0,0.0,77,0.00,-SN,,0.00,WeatherDisplay:10.37,2013-01-21 13:35:00,
2013-01-21 08:40:00,18.0,12.0,29.98,SSE,158,0.0,0.0,77,0.00,-SN,,0.00,WeatherDisplay:10.37,2013-01-21 13:40:00,
2013-01-21 08:45:00,18.0,12.3,29.98,SSE,158,0.0,0.0,78,0.00,-SN,,0.00,WeatherDisplay:10.37,2013-01-21 13:45:00,
2013-01-21 08:50:00,18.0,12.0,29.98,WSW,248,1.1,1.1,77,0.00,-SN,,0.00,WeatherDisplay:10.37,2013-01-21 13:50:00,
2013-01-21 08:55:00,18.1,12.1,29.98,SSE,158,0.5,1.7,77,0.00,-SN,,0.00,WeatherDisplay:10.37,2013-01-21 13:55:00,
2013-01-21 09:00:00,18.3,12.6,29.98,SW,225,0.0,0.0,78,0.00,-SN,,0.00,WeatherDisplay:10.37,2013-01-21 14:00:00,
2013-01-21 09:05:00,18.3,12.6,29.97,SSE,158,0.0,1.1,78,0.00,-SN,,0.00,WeatherDisplay:10.37,2013-01-21 14:05:00,
2013-01-21 09:10:00,18.3,12.6,29.97,SE,135,1.6,1.6,78,0.00,-SN,,0.00,WeatherDisplay:10.37,2013-01-21 14:10:00,
2013-01-21 09:15:00,18.3,12.6,29.97,ESE,112,2.2,2.3,78,0.00,-SN,,0.00,WeatherDisplay:10.37,2013-01-21 14:15:00,
2013-01-21 09:20:00,18.3,12.6,29.97,SE,135,1.7,2.3,78,0.00,-SN,,0.00,WeatherDisplay:10.37,2013-01-21 14:20:00,
2013-01-21 09:25:00,18.3,12.6,29.97,ESE,112,1.7,2.3,78,0.00,-SN,,0.00,WeatherDisplay:10.37,2013-01-21 14:25:00,
2013-01-21 09:30:00,18.7,13.3,29.97,SSE,158,0.7,2.3,79,0.00,-SN,,0.00,WeatherDisplay:10.37,2013-01-21 14:30:00,
2013-01-21 09:35:00,18.5,13.4,29.97,South,180,0.0,0.0,80,0.00,-SN,,0.00,WeatherDisplay:10.37,2013-01-21 14:35:00,
2013-01-21 09:40:00,18.7,13.3,29.96,WSW,248,0.0,0.0,79,0.00,-SN,,0.00,WeatherDisplay:10.37,2013-01-21 14:40:00,
2013-01-21 09:45:00,18.9,13.5,29.96,South,180,0.0,0.0,79,0.00,-SN,,0.00,WeatherDisplay:10.37,2013-01-21 14:45:00,
2013-01-21 09:50:00,19.0,13.6,29.96,SE,135,2.5,3.5,79,0.00,-SN,,0.00,WeatherDisplay:10.37,2013-01-21 14:50:00,
2013-01-21 09:55:00,19.2,13.8,29.97,ESE,112,2.7,3.5,79,0.00,-SN,,0.00,WeatherDisplay:10.37,2013-01-21 14:55:00,
2013-01-21 10:00:00,19.4,14.2,29.97,SSE,158,1.8,2.3,80,0.00,-SN,,0.00,WeatherDisplay:10.37,2013-01-21 15:00:00,
2013-01-21 10:05:00,19.6,14.1,29.96,South,180,0.2,1.1,79,0.00,-SN,,0.00,WeatherDisplay:10.37,2013-01-21 15:05:00,
2013-01-21 10:10:00,20.3,14.2,29.96,SSW,202,1.6,1.7,77,0.00,-SN,,0.00,WeatherDisplay:10.37,2013-01-21 15:10:00,
2013-01-21 10:15:00,20.1,13.4,29.96,South,180,0.3,1.1,75,0.00,-SN,,0.00,WeatherDisplay:10.37,2013-01-21 15:15:00,
2013-01-21 10:20:00,20.1,14.0,29.96,South,180,0.9,1.1,77,0.00,-SN,,0.00,WeatherDisplay:10.37,2013-01-21 15:20:00,
2013-01-21 10:25:00,20.1,13.7,29.96,WSW,248,0.0,0.0,76,0.00,-SN,,0.00,WeatherDisplay:10.37,2013-01-21 15:25:00,
2013-01-21 10:30:00,20.5,14.4,29.96,South,180,1.8,2.3,77,0.00,-SN,,0.00,WeatherDisplay:10.37,2013-01-21 15:30:00,
2013-01-21 10:35:00,20.5,14.7,29.96,SSE,158,2.3,2.3,78,0.00,-SN,,0.00,WeatherDisplay:10.37,2013-01-21 15:35:00,
2013-01-21 10:40:00,20.7,14.6,29.96,SW,225,2.2,2.3,77,0.00,-SN,,0.00,WeatherDisplay:10.37,2013-01-21 15:40:00,
2013-01-21 10:45:00,20.5,14.4,29.96,WSW,248,2.3,2.3,77,0.00,-SN,,0.00,WeatherDisplay:10.37,2013-01-21 15:45:00,
2013-01-21 10:50:00,20.3,13.9,29.96,SSW,202,0.2,1.1,76,0.00,-SN,,0.00,WeatherDisplay:10.37,2013-01-21 15:50:00,
2013-01-21 10:55:00,20.8,14.7,29.94,SSW,202,0.0,0.0,77,0.00,-SN,,0.00,WeatherDisplay:10.37,2013-01-21 15:55:00,
2013-01-21 11:00:00,21.2,14.8,29.94,West,270,0.0,0.0,76,0.00,-SN,,0.00,WeatherDisplay:10.37,2013-01-21 16:00:00,
2013-01-21 11:05:00,21.2,14.8,29.94,SW,225,1.8,2.3,76,0.00,-SN,,0.00,WeatherDisplay:10.37,2013-01-21 16:05:00,
2013-01-21 11:10:00,20.7,14.9,29.94,WSW,248,1.9,2.3,78,0.00,-SN,,0.00,WeatherDisplay:10.37,2013-01-21 16:10:00,
2013-01-21 11:15:00,21.2,15.7,29.94,WSW,248,1.8,2.3,79,0.00,-SN,,0.00,WeatherDisplay:10.37,2013-01-21 16:15:00,
2013-01-21 11:20:00,21.0,15.5,29.94,WSW,248,2.6,4.6,79,0.00,-SN,,0.00,WeatherDisplay:10.37,2013-01-21 16:20:00,
2013-01-21 11:25:00,20.8,15.3,29.94,WSW,248,2.3,3.5,79,0.00,-SN,,0.00,WeatherDisplay:10.37,2013-01-21 16:25:00,
2013-01-21 11:30:00,20.5,14.7,29.93,SW,225,1.8,4.2,78,0.00,-SN,,0.00,WeatherDisplay:10.37,2013-01-21 16:30:00,
2013-01-21 11:35:00,20.7,15.2,29.93,West,270,3.6,4.7,79,0.00,-SN,,0.00,WeatherDisplay:10.37,2013-01-21 16:35:00,
2013-01-21 11:40:00,20.8,15.0,29.92,WNW,292,3.2,4.6,78,0.00,-SN,,0.00,WeatherDisplay:10.37,2013-01-21 16:40:00,
2013-01-21 11:45:00,20.8,15.0,29.92,SW,225,2.8,3.5,78,0.00,-SN,,0.00,WeatherDisplay:10.37,2013-01-21 16:45:00,
2013-01-21 11:50:00,21.4,15.3,29.92,WSW,248,2.9,3.5,77,0.00,-SN,,0.00,WeatherDisplay:10.37,2013-01-21 16:50:00,
2013-01-21 11:55:00,21.2,15.1,29.92,WSW,248,2.7,2.7,77,0.00,-SN,,0.00,WeatherDisplay:10.37,2013-01-21 16:55:00,
2013-01-21 12:00:00,22.1,15.7,29.92,West,270,1.8,2.7,76,0.00,-SN,,0.00,WeatherDisplay:10.37,2013-01-21 17:00:00,
2013-01-21 12:05:00,21.7,15.3,29.92,West,270,4.4,5.8,76,0.00,-SN,,0.00,WeatherDisplay:10.37,2013-01-21 17:05:00,
2013-01-21 12:10:00,21.0,14.0,29.92,WSW,248,5.0,5.8,74,0.00,-SN,,0.00,WeatherDisplay:10.37,2013-01-21 17:10:00,
2013-01-21 12:15:00,21.0,14.0,29.91,WSW,248,5.3,5.8,74,0.00,-SN,,0.00,WeatherDisplay:10.37,2013-01-21 17:15:00,
2013-01-21 12:20:00,20.7,14.6,29.91,West,270,3.3,4.6,77,0.00,-SN,,0.00,WeatherDisplay:10.37,2013-01-21 17:20:00,
2013-01-21 12:25:00,20.3,13.9,29.91,NNW,338,3.8,4.6,76,0.00,-SN,,0.00,WeatherDisplay:10.37,2013-01-21 17:25:00,
2013-01-21 12:30:00,20.5,13.8,29.90,West,270,1.9,3.5,75,0.00,-SN,,0.00,WeatherDisplay:10.37,2013-01-21 17:30:00,
2013-01-21 12:35:00,21.0,14.3,29.90,West,270,3.3,3.5,75,0.00,-SN,,0.00,WeatherDisplay:10.37,2013-01-21 17:35:00,
2013-01-21 12:40:00,21.2,13.9,29.90,SW,225,2.7,3.7,73,0.00,-SN,,0.00,WeatherDisplay:10.37,2013-01-21 17:40:00,
2013-01-21 12:45:00,20.8,12.2,29.90,ENE,68,4.1,5.8,69,0.00,-SN,,0.00,WeatherDisplay:10.37,2013-01-21 17:45:00,
2013-01-21 12:50:00,20.8,11.9,29.90,WNW,292,2.9,3.5,68,0.00,-SN,,0.00,WeatherDisplay:10.37,2013-01-21 17:50:00,
2013-01-21 12:55:00,19.9,12.0,29.89,West,270,3.7,4.6,71,0.00,-SN,,0.00,WeatherDisplay:10.37,2013-01-21 17:55:00,
2013-01-21 13:00:00,21.0,11.4,29.89,West,270,2.5,3.5,66,0.00,-SN,,0.00,WeatherDisplay:10.37,2013-01-21 18:00:00,
2013-01-21 13:05:00,21.9,10.5,29.88,East,90,2.1,2.3,61,0.00,-SN,,0.00,WeatherDisplay:10.37,2013-01-21 18:05:00,
2013-01-21 13:10:00,22.6,10.8,29.88,NE,45,1.3,2.3,60,0.00,-SN,,0.00,WeatherDisplay:10.37,2013-01-21 18:10:00,
2013-01-21 13:15:00,22.1,10.7,29.87,South,180,1.8,2.3,61,0.00,-SN,,0.00,WeatherDisplay:10.37,2013-01-21 18:15:00,
2013-01-21 13:20:00,22.5,10.7,29.87,East,90,2.2,3.5,60,0.00,-SN,,0.00,WeatherDisplay:10.37,2013-01-21 18:20:00,
2013-01-21 13:25:00,23.4,9.6,29.87,SSW,202,1.0,2.3,55,0.00,-SN,,0.00,WeatherDisplay:10.37,2013-01-21 18:25:00,
2013-01-21 13:30:00,23.5,10.5,29.86,NW,315,1.8,2.7,57,0.00,-SN,,0.00,WeatherDisplay:10.37,2013-01-21 18:30:00,
2013-01-21 13:35:00,23.4,10.8,29.86,WSW,248,2.6,2.7,58,0.00,-SN,,0.00,WeatherDisplay:10.37,2013-01-21 18:35:00,
2013-01-21 13:40:00,23.2,10.2,29.86,SW,225,2.6,2.7,57,0.00,-SN,,0.00,WeatherDisplay:10.37,2013-01-21 18:40:00,
2013-01-21 13:45:00,23.4,9.6,29.86,SSW,202,0.0,0.0,55,0.00,-SN,,0.00,WeatherDisplay:10.37,2013-01-21 18:45:00,
2013-01-21 13:50:00,24.3,10.8,29.86,ESE,112,1.8,2.3,56,0.00,-SN,,0.00,WeatherDisplay:10.37,2013-01-21 18:50:00,
2013-01-21 13:55:00,23.2,10.6,29.86,West,270,2.9,4.6,58,0.00,-SN,,0.00,WeatherDisplay:10.37,2013-01-21 18:55:00,
2013-01-21 14:00:00,23.2,10.6,29.86,SW,225,1.6,3.5,58,0.00,-SN,,0.00,WeatherDisplay:10.37,2013-01-21 19:00:00,
2013-01-21 14:05:00,23.0,10.4,29.86,SW,225,3.5,5.8,58,0.00,-SN,,0.00,WeatherDisplay:10.37,2013-01-21 19:05:00,
2013-01-21 14:10:00,23.4,10.8,29.86,SW,225,2.9,3.7,58,0.00,-SN,,0.00,WeatherDisplay:10.37,2013-01-21 19:10:00,
2013-01-21 14:15:00,23.4,11.2,29.85,West,270,2.1,2.3,59,0.00,OVC,,0.00,WeatherDisplay:10.37,2013-01-21 19:15:00,
2013-01-21 14:20:00,24.1,11.4,29.85,SW,225,1.9,3.7,58,0.00,OVC,,0.00,WeatherDisplay:10.37,2013-01-21 19:20:00,
2013-01-21 14:25:00,23.9,10.9,29.85,West,270,2.1,3.5,57,0.00,OVC,,0.00,WeatherDisplay:10.37,2013-01-21 19:25:00,
2013-01-21 14:30:00,23.0,11.2,29.85,West,270,2.6,3.5,60,0.00,OVC,,0.00,WeatherDisplay:10.37,2013-01-21 19:30:00,
2013-01-21 14:35:00,23.4,11.2,29.85,WSW,248,2.6,2.7,59,0.00,-SN,,0.00,WeatherDisplay:10.37,2013-01-21 19:35:00,
2013-01-21 14:40:00,23.5,11.3,29.85,West,270,0.4,1.7,59,0.00,-SN,,0.00,WeatherDisplay:10.37,2013-01-21 19:40:00,
2013-01-21 14:45:00,23.4,11.5,29.85,WNW,292,2.8,3.2,60,0.00,-SN,,0.00,WeatherDisplay:10.37,2013-01-21 19:45:00,
2013-01-21 14:50:00,23.4,11.5,29.85,West,270,1.9,2.3,60,0.00,-SN,,0.00,WeatherDisplay:10.37,2013-01-21 19:50:00,
2013-01-21 14:55:00,22.5,10.7,29.85,SE,135,2.0,2.3,60,0.00,-SN,,0.00,WeatherDisplay:10.37,2013-01-21 19:55:00,
2013-01-21 15:00:00,23.5,10.9,29.85,South,180,3.1,3.5,58,0.00,-SN,,0.00,WeatherDisplay:10.37,2013-01-21 20:00:00,
2013-01-21 15:05:00,24.3,10.4,29.85,ESE,112,2.1,2.7,55,0.00,-SN,,0.00,WeatherDisplay:10.37,2013-01-21 20:05:00,
2013-01-21 15:10:00,23.9,10.9,29.85,South,180,1.4,1.7,57,0.00,-SN,,0.00,WeatherDisplay:10.37,2013-01-21 20:10:00,
2013-01-21 15:15:00,23.9,11.6,29.85,WSW,248,1.4,2.3,59,0.00,-SN,,0.00,WeatherDisplay:10.37,2013-01-21 20:15:00,
2013-01-21 15:20:00,23.4,10.8,29.85,WNW,292,3.0,3.5,58,0.00,-SN,,0.00,WeatherDisplay:10.37,2013-01-21 20:20:00,
2013-01-21 15:25:00,22.8,11.0,29.85,SW,225,2.4,4.6,60,0.00,-SN,,0.00,WeatherDisplay:10.37,2013-01-21 20:25:00,
2013-01-21 15:30:00,22.8,11.0,29.85,West,270,2.3,2.3,60,0.00,-SN,,0.00,WeatherDisplay:10.37,2013-01-21 20:30:00,
2013-01-21 15:35:00,22.5,10.7,29.85,SSE,158,2.5,3.5,60,0.00,-SN,,0.00,WeatherDisplay:10.37,2013-01-21 20:35:00,
2013-01-21 15:40:00,21.7,10.7,29.85,SSW,202,1.1,1.1,62,0.00,-SN,,0.00,WeatherDisplay:10.37,2013-01-21 20:40:00,
2013-01-21 15:45:00,21.9,11.6,29.85,West,270,2.6,3.5,64,0.00,-SN,,0.00,WeatherDisplay:10.37,2013-01-21 20:45:00,
2013-01-21 15:50:00,21.2,11.3,29.84,SSW,202,2.7,3.5,65,0.00,-SN,,0.00,WeatherDisplay:10.37,2013-01-21 20:50:00,
2013-01-21 15:55:00,21.0,11.8,29.84,SW,225,2.5,2.7,67,0.00,-SN,,0.00,WeatherDisplay:10.37,2013-01-21 20:55:00,
2013-01-21 16:00:00,20.7,11.5,29.84,NNW,338,1.3,1.7,67,0.00,-SN,,0.00,WeatherDisplay:10.37,2013-01-21 21:00:00,
2013-01-21 16:05:00,20.5,11.3,29.85,West,270,3.1,3.5,67,0.00,-SN,,0.00,WeatherDisplay:10.37,2013-01-21 21:05:00,
2013-01-21 16:10:00,19.9,12.3,29.85,WSW,248,2.5,3.5,72,0.00,-SN,,0.00,WeatherDisplay:10.37,2013-01-21 21:10:00,
2013-01-21 16:15:00,19.6,13.0,29.85,West,270,2.0,2.3,75,0.00,-SN,,0.00,WeatherDisplay:10.37,2013-01-21 21:15:00,
2013-01-21 16:20:00,19.4,12.8,29.85,West,270,1.1,2.3,75,0.00,-SN,,0.00,WeatherDisplay:10.37,2013-01-21 21:20:00,
2013-01-21 16:25:00,19.0,13.0,29.85,SW,225,2.6,3.5,77,0.00,-SN,,0.00,WeatherDisplay:10.37,2013-01-21 21:25:00,
2013-01-21 16:30:00,18.5,13.1,29.85,WSW,248,2.4,2.7,79,0.00,-SN,,0.00,WeatherDisplay:10.37,2013-01-21 21:30:00,
2013-01-21 16:35:00,18.5,13.6,29.85,West,270,2.5,3.5,81,0.00,-SN,,0.00,WeatherDisplay:10.37,2013-01-21 21:35:00,
2013-01-21 16:40:00,18.5,13.9,29.86,West,270,2.3,2.7,82,0.00,-SN,,0.00,WeatherDisplay:10.37,2013-01-21 21:40:00,
2013-01-21 16:45:00,18.3,14.3,29.86,SW,225,2.6,3.5,84,0.00,-SN,,0.00,WeatherDisplay:10.37,2013-01-21 21:45:00,
2013-01-21 16:50:00,18.1,14.1,29.86,SW,225,1.9,2.3,84,0.00,-SN,,0.00,WeatherDisplay:10.37,2013-01-21 21:50:00,
2013-01-21 16:55:00,18.1,14.4,29.86,WSW,248,2.3,2.3,85,0.00,-SN,,0.00,WeatherDisplay:10.37,2013-01-21 21:55:00,
2013-01-21 17:00:00,18.0,14.3,29.86,SE,135,1.7,2.3,85,0.00,-SN,,0.00,WeatherDisplay:10.37,2013-01-21 22:00:00,
2013-01-21 17:05:00,18.0,14.5,29.86,South,180,1.7,2.3,86,0.00,-SN,,0.00,WeatherDisplay:10.37,2013-01-21 22:05:00,
2013-01-21 17:10:00,17.6,14.4,29.86,NNE,22,3.1,3.5,87,0.00,-SN,,0.00,WeatherDisplay:10.37,2013-01-21 22:10:00,
2013-01-21 17:15:00,17.6,14.7,29.86,SSW,202,2.0,2.3,88,0.00,OVC,,0.00,WeatherDisplay:10.37,2013-01-21 22:15:00,
2013-01-21 17:20:00,17.6,14.7,29.86,West,270,1.7,2.3,88,0.00,OVC,,0.00,WeatherDisplay:10.37,2013-01-21 22:20:00,
2013-01-21 17:25:00,17.4,14.7,29.86,WSW,248,1.7,1.7,89,0.00,OVC,,0.00,WeatherDisplay:10.37,2013-01-21 22:25:00,
2013-01-21 17:30:00,17.4,14.7,29.86,West,270,2.1,2.3,89,0.00,OVC,,0.00,WeatherDisplay:10.37,2013-01-21 22:30:00,
2013-01-21 17:35:00,17.4,14.7,29.86,West,270,1.9,2.3,89,0.00,OVC,,0.00,WeatherDisplay:10.37,2013-01-21 22:35:00,
2013-01-21 17:40:00,17.4,14.7,29.87,West,270,2.3,2.7,89,0.00,OVC,,0.00,WeatherDisplay:10.37,2013-01-21 22:40:00,
2013-01-21 17:45:00,17.4,14.7,29.87,South,180,1.5,2.3,89,0.00,OVC,,0.00,WeatherDisplay:10.37,2013-01-21 22:45:00,
2013-01-21 17:50:00,17.4,14.7,29.87,WNW,292,1.3,3.5,89,0.00,OVC,,0.00,WeatherDisplay:10.37,2013-01-21 22:50:00,
2013-01-21 17:55:00,17.2,14.5,29.87,West,270,1.5,2.3,89,0.00,-SN,,0.00,WeatherDisplay:10.37,2013-01-21 22:55:00,
2013-01-21 18:00:00,17.1,14.7,29.87,WNW,292,2.1,2.3,90,0.00,-SN,,0.00,WeatherDisplay:10.37,2013-01-21 23:00:00,
2013-01-21 18:05:00,16.9,14.5,29.87,West,270,2.0,2.3,90,0.00,-SN,,0.00,WeatherDisplay:10.37,2013-01-21 23:05:00,
2013-01-21 18:10:00,16.7,14.3,29.87,SW,225,1.8,2.3,90,0.00,-SN,,0.00,WeatherDisplay:10.37,2013-01-21 23:10:00,
2013-01-21 18:15:00,16.7,14.3,29.87,West,270,1.6,2.3,90,0.00,-SN,,0.00,WeatherDisplay:10.37,2013-01-21 23:15:00,
2013-01-21 18:20:00,16.7,14.3,29.87,WSW,248,0.6,1.1,90,0.00,-SN,,0.00,WeatherDisplay:10.37,2013-01-21 23:20:00,
2013-01-21 18:25:00,16.7,14.3,29.87,West,270,2.2,2.3,90,0.00,-SN,,0.00,WeatherDisplay:10.37,2013-01-21 23:25:00,
2013-01-21 18:30:00,16.7,13.5,29.87,SSW,202,2.4,3.5,87,0.00,-SN,,0.00,WeatherDisplay:10.37,2013-01-21 23:30:00,
2013-01-21 18:35:00,16.9,13.2,29.87,West,270,3.0,3.5,85,0.00,-SN,,0.00,WeatherDisplay:10.37,2013-01-21 23:35:00,
2013-01-21 18:40:00,16.9,12.9,29.87,West,270,2.3,4.2,84,0.00,-SN,,0.00,WeatherDisplay:10.37,2013-01-21 23:40:00,
2013-01-21 18:45:00,17.1,12.6,29.87,West,270,2.8,4.6,82,0.00,-SN,,0.00,WeatherDisplay:10.37,2013-01-21 23:45:00,
2013-01-21 18:50:00,17.2,12.4,29.87,West,270,4.2,5.8,81,0.00,-SN,,0.00,WeatherDisplay:10.37,2013-01-21 23:50:00,
2013-01-21 18:55:00,17.2,12.9,29.87,West,270,4.5,5.8,83,0.00,-SN,,0.00,WeatherDisplay:10.37,2013-01-21 23:55:00,
2013-01-21 19:00:00,17.2,12.9,29.87,NNW,338,6.4,9.2,83,0.00,-SN,,0.00,WeatherDisplay:10.37,2013-01-22 00:00:00,
2013-01-21 19:05:00,17.1,12.6,29.87,SW,225,6.4,8.1,82,0.00,-SN,,0.00,WeatherDisplay:10.37,2013-01-22 00:05:00,
2013-01-21 19:10:00,16.7,11.6,29.87,West,270,6.6,6.9,80,0.00,-SN,,0.00,WeatherDisplay:10.37,2013-01-22 00:10:00,
2013-01-21 19:15:00,16.5,10.5,29.87,NW,315,7.6,10.4,77,0.00,-SN,,0.00,WeatherDisplay:10.37,2013-01-22 00:15:00,
2013-01-21 19:20:00,16.3,9.8,29.87,WSW,248,7.3,8.8,75,0.00,-SN,,0.00,WeatherDisplay:10.37,2013-01-22 00:20:00,
2013-01-21 19:25:00,16.3,9.5,29.87,WNW,292,3.3,4.6,74,0.00,-SN,,0.00,WeatherDisplay:10.37,2013-01-22 00:25:00,
2013-01-21 19:30:00,16.3,8.2,29.88,WSW,248,4.0,6.8,70,0.00,-SN,,0.00,WeatherDisplay:10.37,2013-01-22 00:30:00,
2013-01-21 19:35:00,16.2,8.1,29.88,West,270,8.3,10.4,70,0.00,-SN,,0.00,WeatherDisplay:10.37,2013-01-22 00:35:00,
2013-01-21 19:40:00,16.2,8.1,29.88,WSW,248,6.6,8.1,70,0.00,-SN,,0.00,WeatherDisplay:10.37,2013-01-22 00:40:00,
2013-01-21 19:45:00,16.2,8.1,29.88,West,270,7.3,9.4,70,0.00,-SN,,0.00,WeatherDisplay:10.37,2013-01-22 00:45:00,
2013-01-21 19:50:00,16.2,8.4,29.89,WSW,248,4.5,5.8,71,0.00,-SN,,0.00,WeatherDisplay:10.37,2013-01-22 00:50:00,
2013-01-21 19:55:00,15.8,8.1,29.89,WSW,248,6.4,6.9,71,0.00,-SN,,0.00,WeatherDisplay:10.37,2013-01-22 00:55:00,
2013-01-21 20:00:00,15.8,8.1,29.89,WNW,292,4.4,8.1,71,0.00,-SN,,0.00,WeatherDisplay:10.37,2013-01-22 01:00:00,
2013-01-21 20:05:00,15.4,7.0,29.89,West,270,4.9,5.8,69,0.00,-SN,,0.00,WeatherDisplay:10.37,2013-01-22 01:05:00,
2013-01-21 20:10:00,15.3,6.3,29.89,SSW,202,5.5,6.3,67,0.00,-SN,,0.00,WeatherDisplay:10.37,2013-01-22 01:10:00,
2013-01-21 20:15:00,15.1,5.8,29.89,WNW,292,6.0,9.2,66,0.00,BKN,,0.00,WeatherDisplay:10.37,2013-01-22 01:15:00,
2013-01-21 20:20:00,14.9,5.6,29.89,West,270,5.5,5.8,66,0.00,BKN,,0.00,WeatherDisplay:10.37,2013-01-22 01:20:00,
2013-01-21 20:25:00,14.7,5.4,29.89,WNW,292,6.3,6.9,66,0.00,BKN,,0.00,WeatherDisplay:10.37,2013-01-22 01:25:00,
2013-01-21 20:30:00,14.5,5.2,29.88,NNW,338,3.6,4.2,66,0.00,BKN,,0.00,WeatherDisplay:10.37,2013-01-22 01:30:00,
2013-01-21 20:35:00,14.5,5.2,29.88,WNW,292,5.1,5.3,66,0.00,BKN,,0.00,WeatherDisplay:10.37,2013-01-22 01:35:00,
2013-01-21 20:40:00,14.4,5.1,29.89,West,270,3.8,4.6,66,0.00,BKN,,0.00,WeatherDisplay:10.37,2013-01-22 01:40:00,
2013-01-21 20:45:00,14.4,5.1,29.89,SW,225,4.5,5.8,66,0.00,BKN,,0.00,WeatherDisplay:10.37,2013-01-22 01:45:00,
2013-01-21 20:50:00,14.4,4.8,29.89,WSW,248,3.8,4.6,65,0.00,BKN,,0.00,WeatherDisplay:10.37,2013-01-22 01:50:00,
2013-01-21 20:55:00,14.4,4.8,29.89,WSW,248,4.5,5.8,65,0.00,BKN,,0.00,WeatherDisplay:10.37,2013-01-22 01:55:00,
2013-01-21 21:00:00,14.2,4.6,29.89,WSW,248,3.7,5.8,65,0.00,BKN,,0.00,WeatherDisplay:10.37,2013-01-22 02:00:00,
2013-01-21 21:05:00,14.0,4.7,29.90,WSW,248,7.4,10.4,66,0.00,BKN,,0.00,WeatherDisplay:10.37,2013-01-22 02:05:00,
2013-01-21 21:10:00,13.8,4.5,29.90,West,270,4.5,5.8,66,0.00,BKN,,0.00,WeatherDisplay:10.37,2013-01-22 02:10:00,
2013-01-21 21:15:00,13.6,4.3,29.90,SW,225,6.9,8.3,66,0.00,BKN,,0.00,WeatherDisplay:10.37,2013-01-22 02:15:00,
2013-01-21 21:20:00,13.5,3.9,29.90,WSW,248,3.9,4.6,65,0.00,BKN,,0.00,WeatherDisplay:10.37,2013-01-22 02:20:00,
2013-01-21 21:25:00,13.1,3.9,29.90,NW,315,8.0,8.1,66,0.00,BKN,,0.00,WeatherDisplay:10.37,2013-01-22 02:25:00,
2013-01-21 21:30:00,13.3,2.7,29.90,SSW,202,4.0,6.9,62,0.00,BKN,,0.00,WeatherDisplay:10.37,2013-01-22 02:30:00,
2013-01-21 21:35:00,13.3,2.7,29.90,SW,225,6.5,11.5,62,0.00,BKN,,0.00,WeatherDisplay:10.37,2013-01-22 02:35:00,
2013-01-21 21:40:00,13.1,2.5,29.90,SW,225,7.0,8.1,62,0.00,BKN,,0.00,WeatherDisplay:10.37,2013-01-22 02:40:00,
2013-01-21 21:45:00,12.9,2.3,29.90,WSW,248,6.1,6.1,62,0.00,BKN,,0.00,WeatherDisplay:10.37,2013-01-22 02:45:00,
2013-01-21 21:50:00,12.9,2.3,29.91,WSW,248,7.4,10.4,62,0.00,BKN,,0.00,WeatherDisplay:10.37,2013-01-22 02:50:00,
2013-01-21 21:55:00,12.9,2.7,29.91,West,270,5.4,6.9,63,0.00,BKN,,0.00,WeatherDisplay:10.37,2013-01-22 02:55:00,
2013-01-21 22:00:00,12.9,2.7,29.91,SW,225,4.7,5.8,63,0.00,BKN,,0.00,WeatherDisplay:10.37,2013-01-22 03:00:00,
2013-01-21 22:05:00,12.7,2.8,29.91,SW,225,4.2,6.9,64,0.00,BKN,,0.00,WeatherDisplay:10.37,2013-01-22 03:05:00,
2013-01-21 22:10:00,12.6,3.1,29.91,SW,225,5.5,5.8,65,0.00,BKN,,0.00,WeatherDisplay:10.37,2013-01-22 03:10:00,
2013-01-21 22:15:00,12.6,3.1,29.91,SW,225,5.9,10.4,65,0.00,BKN,,0.00,WeatherDisplay:10.37,2013-01-22 03:15:00,
2013-01-21 22:20:00,12.4,2.9,29.91,WSW,248,4.1,5.8,65,0.00,BKN,,0.00,WeatherDisplay:10.37,2013-01-22 03:20:00,
2013-01-21 22:25:00,12.4,3.2,29.91,West,270,5.1,9.2,66,0.00,BKN,,0.00,WeatherDisplay:10.37,2013-01-22 03:25:00,
2013-01-21 22:30:00,12.2,2.7,29.91,WSW,248,5.9,8.1,65,0.00,BKN,,0.00,WeatherDisplay:10.37,2013-01-22 03:30:00,
2013-01-21 22:35:00,12.2,1.3,29.91,West,270,4.7,9.2,61,0.00,BKN,,0.00,WeatherDisplay:10.37,2013-01-22 03:35:00,
2013-01-21 22:40:00,12.2,-0.5,29.90,West,270,9.1,10.4,56,0.00,BKN,,0.00,WeatherDisplay:10.37,2013-01-22 03:40:00,
2013-01-21 22:45:00,12.2,-0.9,29.90,SW,225,8.7,11.9,55,0.00,BKN,,0.00,WeatherDisplay:10.37,2013-01-22 03:45:00,
2013-01-21 22:50:00,12.0,-0.7,29.90,West,270,4.8,5.8,56,0.00,BKN,,0.00,WeatherDisplay:10.37,2013-01-22 03:50:00,
2013-01-21 22:55:00,11.8,-0.9,29.90,WSW,248,7.1,9.9,56,0.00,BKN,,0.00,WeatherDisplay:10.37,2013-01-22 03:55:00,
2013-01-21 23:00:00,11.7,-0.3,29.90,West,270,9.9,12.7,58,0.00,BKN,,0.00,WeatherDisplay:10.37,2013-01-22 04:00:00,
2013-01-21 23:05:00,11.7,-0.3,29.91,West,270,12.0,15.0,58,0.00,SCT,,0.00,WeatherDisplay:10.37,2013-01-22 04:05:00,
2013-01-21 23:10:00,11.7,0.1,29.91,North,360,7.6,7.6,59,0.00,SCT,,0.00,WeatherDisplay:10.37,2013-01-22 04:10:00,
2013-01-21 23:15:00,11.7,-0.6,29.91,West,270,9.6,15.0,57,0.00,SCT,,0.00,WeatherDisplay:10.37,2013-01-22 04:15:00,
2013-01-21 23:20:00,11.5,-0.8,29.91,WSW,248,6.8,6.9,57,0.00,SCT,,0.00,WeatherDisplay:10.37,2013-01-22 04:20:00,
2013-01-21 23:25:00,11.3,-1.4,29.91,South,180,11.0,14.5,56,0.00,SCT,,0.00,WeatherDisplay:10.37,2013-01-22 04:25:00,
2013-01-21 23:30:00,11.1,-1.2,29.91,SW,225,5.3,6.9,57,0.00,SCT,,0.00,WeatherDisplay:10.37,2013-01-22 04:30:00,
2013-01-21 23:35:00,10.9,-1.4,29.91,WSW,248,4.6,6.9,57,0.00,SCT,,0.00,WeatherDisplay:10.37,2013-01-22 04:35:00,
2013-01-21 23:40:00,10.9,-2.1,29.91,WNW,292,9.0,12.7,55,0.00,SCT,,0.00,WeatherDisplay:10.37,2013-01-22 04:40:00,
2013-01-21 23:45:00,10.9,-2.5,29.91,West,270,11.7,13.5,54,0.00,SCT,,0.00,WeatherDisplay:10.37,2013-01-22 04:45:00,
2013-01-21 23:50:00,10.8,-2.6,29.90,WNW,292,8.7,10.9,54,0.00,SCT,,0.00,WeatherDisplay:10.37,2013-01-22 04:50:00,
2013-01-21 23:55:00,10.6,-2.8,29.90,SW,225,13.2,16.1,54,0.00,SCT,,0.00,WeatherDisplay:10.37,2013-01-22 04:55:00,